Time;durP1;ratioP1;P1;durP2;ratioP2;P2;SDS_P1;SDS_P2;PMS_P1;PMS_P2;Temp;Humidity;BMP_temperature;BMP_pressure;BME280_temperature;BME280_humidity;BME280_pressure;Samples;Min_cycle;Max_cycle;Signal;HPM_P1;HPM_P2
2023/10/29 00:00:44;;;;;;;0.00;0.00;;;;;;;;;;5001246;28;20512;-65
2023/10/29 00:03:11;;;;;;;0.00;0.00;;;;;;;;;;4999643;28;20140;-65
2023/10/29 00:05:37;;;;;;;0.00;0.00;;;;;;;;;;4998850;28;20038;-65
2023/10/29 00:08:03;;;;;;;0.00;0.00;;;;;;;;;;4997289;28;20181;-65
2023/10/29 00:10:29;;;;;;;0.00;0.00;;;;;;;;;;4999630;28;20034;-65
2023/10/29 00:12:55;;;;;;;0.00;0.00;;;;;;;;;;4999944;28;20505;-65
2023/10/29 00:15:21;;;;;;;0.00;0.00;;;;;;;;;;4998624;28;20050;-65
2023/10/29 00:17:47;;;;;;;0.00;0.00;;;;;;;;;;4999799;28;20042;-65
2023/10/29 00:20:13;;;;;;;0.00;0.00;;;;;;;;;;4989318;28;20042;-65
2023/10/29 00:22:39;;;;;;;0.00;0.00;;;;;;;;;;4982610;28;20034;-65
2023/10/29 00:25:05;;;;;;;0.00;0.00;;;;;;;;;;4986716;28;20041;-65
2023/10/29 00:27:31;;;;;;;0.00;0.00;;;;;;;;;;4980862;28;20034;-65
2023/10/29 00:29:57;;;;;;;0.00;0.00;;;;;;;;;;4978843;28;20056;-65
2023/10/29 00:32:23;;;;;;;0.00;0.00;;;;;;;;;;4979954;28;20096;-65
2023/10/29 00:34:49;;;;;;;0.00;0.00;;;;;;;;;;4980905;28;20073;-65
2023/10/29 00:37:18;;;;;;;0.00;0.00;;;;;;;;;;4981596;28;20034;-69
2023/10/29 00:39:44;;;;;;;0.00;0.00;;;;;;;;;;4977537;28;20038;-70
2023/10/29 00:42:11;;;;;;;0.00;0.00;;;;;;;;;;4977141;28;20055;-69
2023/10/29 00:44:37;;;;;;;0.00;0.00;;;;;;;;;;4970089;28;20046;-67
2023/10/29 00:47:04;;;;;;;0.00;0.00;;;;;;;;;;4973484;28;20360;-69
2023/10/29 00:49:30;;;;;;;0.00;0.00;;;;;;;;;;4988924;28;20037;-69
2023/10/29 00:51:56;;;;;;;0.00;0.00;;;;;;;;;;4983862;28;20355;-68
2023/10/29 00:54:22;;;;;;;0.00;0.00;;;;;;;;;;4978317;28;20489;-69
2023/10/29 00:56:48;;;;;;;0.00;0.00;;;;;;;;;;4991974;28;20441;-68
2023/10/29 00:59:14;;;;;;;0.00;0.00;;;;;;;;;;4977529;28;20121;-68
2023/10/29 01:01:41;;;;;;;0.00;0.00;;;;;;;;;;4979225;28;20034;-68
2023/10/29 01:04:08;;;;;;;0.00;0.00;;;;;;;;;;4977307;28;20046;-69
2023/10/29 01:06:38;;;;;;;0.00;0.00;;;;;;;;;;4985313;28;20034;-69
2023/10/29 01:09:05;;;;;;;0.00;0.00;;;;;;;;;;4976833;28;20034;-69
2023/10/29 01:11:32;;;;;;;0.00;0.00;;;;;;;;;;4977763;28;20039;-70
2023/10/29 01:13:58;;;;;;;0.00;0.00;;;;;;;;;;4979093;28;20054;-69
2023/10/29 01:16:24;;;;;;;0.00;0.00;;;;;;;;;;4977343;28;20038;-69
2023/10/29 01:18:51;;;;;;;0.00;0.00;;;;;;;;;;4979554;28;20758;-69
2023/10/29 01:21:16;;;;;;;0.00;0.00;;;;;;;;;;4987034;28;20049;-69
2023/10/29 01:23:43;;;;;;;0.00;0.00;;;;;;;;;;4978127;28;20038;-68
2023/10/29 01:26:09;;;;;;;0.00;0.00;;;;;;;;;;4980869;28;20776;-69
2023/10/29 01:28:35;;;;;;;0.00;0.00;;;;;;;;;;4981985;28;21035;-68
2023/10/29 01:31:01;;;;;;;0.00;0.00;;;;;;;;;;4978470;28;20049;-68
2023/10/29 01:33:27;;;;;;;0.00;0.00;;;;;;;;;;4982045;28;20126;-68
2023/10/29 01:35:53;;;;;;;0.00;0.00;;;;;;;;;;4984405;28;20064;-68
2023/10/29 01:38:19;;;;;;;0.00;0.00;;;;;;;;;;4991093;28;20038;-65
2023/10/29 01:40:45;;;;;;;0.00;0.00;;;;;;;;;;4990929;28;20029;-65
2023/10/29 01:43:11;;;;;;;0.00;0.00;;;;;;;;;;4984905;28;20052;-65
2023/10/29 01:45:37;;;;;;;0.00;0.00;;;;;;;;;;4984848;28;20133;-65
2023/10/29 01:48:03;;;;;;;0.00;0.00;;;;;;;;;;4984469;28;20042;-68
2023/10/29 01:50:29;;;;;;;0.00;0.00;;;;;;;;;;4982989;28;20074;-68
2023/10/29 01:52:57;;;;;;;0.00;0.00;;;;;;;;;;4982064;28;20608;-68
2023/10/29 01:55:23;;;;;;;0.00;0.00;;;;;;;;;;4980093;28;20038;-68
2023/10/29 01:57:49;;;;;;;0.00;0.00;;;;;;;;;;4986230;28;20034;-69
2023/10/29 02:00:15;;;;;;;0.00;0.00;;;;;;;;;;4982844;28;20038;-69
2023/10/29 02:02:41;;;;;;;0.00;0.00;;;;;;;;;;4982679;28;20108;-68
2023/10/29 02:05:07;;;;;;;0.00;0.00;;;;;;;;;;4982837;28;20042;-68
2023/10/29 02:07:34;;;;;;;0.00;0.00;;;;;;;;;;4984333;28;20573;-67
2023/10/29 02:09:59;;;;;;;0.00;0.00;;;;;;;;;;4983278;28;20786;-68
2023/10/29 02:12:25;;;;;;;0.00;0.00;;;;;;;;;;4981657;28;20053;-68
2023/10/29 02:14:51;;;;;;;0.00;0.00;;;;;;;;;;4983966;28;20045;-68
2023/10/29 02:17:17;;;;;;;0.00;0.00;;;;;;;;;;4980787;28;20086;-68
2023/10/29 02:19:43;;;;;;;0.00;0.00;;;;;;;;;;4982294;28;20034;-68
2023/10/29 02:22:09;;;;;;;0.00;0.00;;;;;;;;;;4981658;28;20066;-68
2023/10/29 02:24:35;;;;;;;0.00;0.00;;;;;;;;;;4984301;28;20126;-68
2023/10/29 02:27:01;;;;;;;0.00;0.00;;;;;;;;;;4984074;28;20562;-67
2023/10/29 02:29:27;;;;;;;0.00;0.00;;;;;;;;;;4980923;28;20073;-68
2023/10/29 02:31:53;;;;;;;0.00;0.00;;;;;;;;;;4997564;28;20085;-68
2023/10/29 02:34:19;;;;;;;0.00;0.00;;;;;;;;;;4981207;28;20125;-68
2023/10/29 02:36:45;;;;;;;0.00;0.00;;;;;;;;;;4986296;28;20535;-67
2023/10/29 02:39:12;;;;;;;0.00;0.00;;;;;;;;;;4981784;28;20039;-68
2023/10/29 02:41:38;;;;;;;0.00;0.00;;;;;;;;;;4984050;28;20558;-67
2023/10/29 02:44:04;;;;;;;0.00;0.00;;;;;;;;;;4982833;28;20082;-68
2023/10/29 02:46:30;;;;;;;0.00;0.00;;;;;;;;;;4982383;28;20042;-69
2023/10/29 02:48:56;;;;;;;0.00;0.00;;;;;;;;;;4980491;28;20030;-67
2023/10/29 02:51:22;;;;;;;0.00;0.00;;;;;;;;;;4980615;28;20045;-68
2023/10/29 02:53:48;;;;;;;0.00;0.00;;;;;;;;;;4981463;28;20035;-68
2023/10/29 02:56:14;;;;;;;0.00;0.00;;;;;;;;;;4980242;28;20043;-68
2023/10/29 02:58:40;;;;;;;0.00;0.00;;;;;;;;;;4981322;28;20072;-68
2023/10/29 03:01:07;;;;;;;0.00;0.00;;;;;;;;;;4979236;28;20117;-68
2023/10/29 03:03:33;;;;;;;0.00;0.00;;;;;;;;;;4980626;28;20039;-68
2023/10/29 03:06:03;;;;;;;0.00;0.00;;;;;;;;;;4982297;28;20042;-68
2023/10/29 03:08:29;;;;;;;0.00;0.00;;;;;;;;;;4988683;28;20045;-69
2023/10/29 03:10:55;;;;;;;0.00;0.00;;;;;;;;;;4980240;28;20035;-68
2023/10/29 03:13:21;;;;;;;0.00;0.00;;;;;;;;;;4978710;28;20065;-68
2023/10/29 03:15:47;;;;;;;0.00;0.00;;;;;;;;;;4981585;28;20034;-67
2023/10/29 03:18:14;;;;;;;0.00;0.00;;;;;;;;;;4981921;28;20129;-69
2023/10/29 03:20:40;;;;;;;0.00;0.00;;;;;;;;;;4978953;28;20120;-68
2023/10/29 03:23:06;;;;;;;0.00;0.00;;;;;;;;;;4979998;28;20096;-68
2023/10/29 03:25:32;;;;;;;0.00;0.00;;;;;;;;;;4979599;28;20046;-68
2023/10/29 03:27:58;;;;;;;0.00;0.00;;;;;;;;;;4981297;28;20038;-66
2023/10/29 03:30:24;;;;;;;0.00;0.00;;;;;;;;;;4981390;28;20724;-65
2023/10/29 03:32:50;;;;;;;0.00;0.00;;;;;;;;;;4982095;28;20045;-65
2023/10/29 03:35:16;;;;;;;0.00;0.00;;;;;;;;;;4997586;28;20375;-65
2023/10/29 03:37:42;;;;;;;0.00;0.00;;;;;;;;;;4982880;28;20046;-65
2023/10/29 03:40:08;;;;;;;0.00;0.00;;;;;;;;;;4980953;28;20050;-65
2023/10/29 03:42:34;;;;;;;0.00;0.00;;;;;;;;;;4983334;28;20043;-65
2023/10/29 03:45:00;;;;;;;0.00;0.00;;;;;;;;;;4985539;28;20058;-65
2023/10/29 03:47:26;;;;;;;0.00;0.00;;;;;;;;;;4981145;28;20042;-65
2023/10/29 03:49:52;;;;;;;0.00;0.00;;;;;;;;;;4982417;28;20077;-66
2023/10/29 03:52:25;;;;;;;0.00;0.00;;;;;;;;;;4981807;28;20120;-65
2023/10/29 03:54:51;;;;;;;0.00;0.00;;;;;;;;;;4981022;28;20038;-65
2023/10/29 03:57:17;;;;;;;0.00;0.00;;;;;;;;;;4975325;28;20038;-65
2023/10/29 03:59:43;;;;;;;0.00;0.00;;;;;;;;;;4989527;28;20309;-65
2023/10/29 04:02:09;;;;;;;0.00;0.00;;;;;;;;;;4993808;28;20070;-65
2023/10/29 04:04:35;;;;;;;0.00;0.00;;;;;;;;;;4987306;28;20038;-65
2023/10/29 04:07:02;;;;;;;0.00;0.00;;;;;;;;;;4984572;28;20891;-65
2023/10/29 04:09:28;;;;;;;0.00;0.00;;;;;;;;;;4980546;28;20034;-65
2023/10/29 04:11:54;;;;;;;0.00;0.00;;;;;;;;;;4999390;28;20042;-65
2023/10/29 04:14:20;;;;;;;0.00;0.00;;;;;;;;;;4972841;28;20038;-64
2023/10/29 04:16:46;;;;;;;0.00;0.00;;;;;;;;;;4980330;28;20026;-65
2023/10/29 04:19:12;;;;;;;0.00;0.00;;;;;;;;;;4979098;28;20046;-65
2023/10/29 04:21:38;;;;;;;0.00;0.00;;;;;;;;;;4986558;28;20042;-65
2023/10/29 04:24:04;;;;;;;0.00;0.00;;;;;;;;;;4979200;28;20033;-65
2023/10/29 04:26:31;;;;;;;0.00;0.00;;;;;;;;;;4982301;28;20606;-65
2023/10/29 04:28:57;;;;;;;0.00;0.00;;;;;;;;;;4981788;28;20380;-66
2023/10/29 04:31:23;;;;;;;0.00;0.00;;;;;;;;;;4979093;28;20038;-65
2023/10/29 04:33:49;;;;;;;0.00;0.00;;;;;;;;;;4977530;28;20038;-66
2023/10/29 04:36:18;;;;;;;0.00;0.00;;;;;;;;;;4982261;28;20128;-65
2023/10/29 04:38:44;;;;;;;0.00;0.00;;;;;;;;;;4983855;28;20490;-68
2023/10/29 04:41:10;;;;;;;0.00;0.00;;;;;;;;;;4981249;28;20045;-69
2023/10/29 04:43:36;;;;;;;0.00;0.00;;;;;;;;;;4986464;28;20133;-69
2023/10/29 04:46:03;;;;;;;0.00;0.00;;;;;;;;;;4979958;28;20046;-69
2023/10/29 04:48:29;;;;;;;0.00;0.00;;;;;;;;;;4986237;28;20577;-68
2023/10/29 04:50:55;;;;;;;0.00;0.00;;;;;;;;;;4983644;28;20042;-68
2023/10/29 04:53:21;;;;;;;0.00;0.00;;;;;;;;;;4977946;28;20046;-68
2023/10/29 04:55:47;;;;;;;0.00;0.00;;;;;;;;;;4978039;28;20042;-69
2023/10/29 04:58:13;;;;;;;0.00;0.00;;;;;;;;;;4980502;28;20534;-65
2023/10/29 05:00:39;;;;;;;0.00;0.00;;;;;;;;;;4984206;28;20129;-65
2023/10/29 05:03:05;;;;;;;0.00;0.00;;;;;;;;;;4982476;28;20048;-65
2023/10/29 05:05:31;;;;;;;0.00;0.00;;;;;;;;;;4987572;28;20069;-65
2023/10/29 05:07:57;;;;;;;0.00;0.00;;;;;;;;;;4986596;28;20243;-65
2023/10/29 05:10:25;;;;;;;0.00;0.00;;;;;;;;;;4986421;28;20043;-65
2023/10/29 05:12:51;;;;;;;0.00;0.00;;;;;;;;;;4980325;28;20042;-65
2023/10/29 05:15:17;;;;;;;0.00;0.00;;;;;;;;;;4990277;28;20382;-65
2023/10/29 05:17:43;;;;;;;0.00;0.00;;;;;;;;;;4981833;28;20471;-65
2023/10/29 05:20:10;;;;;;;0.00;0.00;;;;;;;;;;4992508;28;20459;-65
2023/10/29 05:22:36;;;;;;;0.00;0.00;;;;;;;;;;4983174;28;20517;-65
2023/10/29 05:25:03;;;;;;;0.00;0.00;;;;;;;;;;4979587;28;20046;-65
2023/10/29 05:27:29;;;;;;;0.00;0.00;;;;;;;;;;4986590;28;20475;-65
2023/10/29 05:29:55;;;;;;;0.00;0.00;;;;;;;;;;4982640;28;20038;-65
2023/10/29 05:32:21;;;;;;;0.00;0.00;;;;;;;;;;4994410;28;20081;-65
2023/10/29 05:34:47;;;;;;;0.00;0.00;;;;;;;;;;4981657;28;20325;-65
2023/10/29 05:37:13;;;;;;;0.00;0.00;;;;;;;;;;4981030;28;20093;-64
2023/10/29 05:39:39;;;;;;;0.00;0.00;;;;;;;;;;4979237;28;20041;-65
2023/10/29 05:42:05;;;;;;;0.00;0.00;;;;;;;;;;4979987;28;20549;-65
2023/10/29 05:44:32;;;;;;;0.00;0.00;;;;;;;;;;4981678;28;20096;-64
2023/10/29 05:46:57;;;;;;;0.00;0.00;;;;;;;;;;4978063;28;20097;-65
2023/10/29 05:49:23;;;;;;;0.00;0.00;;;;;;;;;;4982317;28;20418;-65
2023/10/29 05:51:49;;;;;;;0.00;0.00;;;;;;;;;;4980376;28;20038;-65
2023/10/29 05:54:16;;;;;;;0.00;0.00;;;;;;;;;;4975610;28;20419;-65
2023/10/29 05:56:42;;;;;;;0.00;0.00;;;;;;;;;;4977677;28;20046;-65
2023/10/29 05:59:08;;;;;;;0.00;0.00;;;;;;;;;;4981031;28;20053;-65
2023/10/29 06:01:34;;;;;;;0.00;0.00;;;;;;;;;;4983063;28;20481;-65
2023/10/29 06:03:59;;;;;;;0.00;0.00;;;;;;;;;;4963427;28;20540;-65
2023/10/29 06:06:25;;;;;;;0.00;0.00;;;;;;;;;;4981548;28;20415;-65
2023/10/29 06:08:51;;;;;;;0.00;0.00;;;;;;;;;;4980634;28;20199;-64
2023/10/29 06:11:17;;;;;;;0.00;0.00;;;;;;;;;;4980286;28;20038;-65
2023/10/29 06:13:44;;;;;;;0.00;0.00;;;;;;;;;;4985206;28;20046;-65
2023/10/29 06:16:10;;;;;;;0.00;0.00;;;;;;;;;;4978266;28;20092;-64
2023/10/29 06:18:36;;;;;;;0.00;0.00;;;;;;;;;;4982457;28;20054;-68
2023/10/29 06:21:03;;;;;;;0.00;0.00;;;;;;;;;;4980586;28;20042;-69
2023/10/29 06:23:29;;;;;;;0.00;0.00;;;;;;;;;;4978433;28;20554;-68
2023/10/29 06:25:55;;;;;;;0.00;0.00;;;;;;;;;;4981224;28;20030;-70
2023/10/29 06:28:20;;;;;;;0.00;0.00;;;;;;;;;;4979600;28;20532;-67
2023/10/29 06:30:46;;;;;;;0.00;0.00;;;;;;;;;;4984475;28;20410;-69
2023/10/29 06:33:12;;;;;;;0.00;0.00;;;;;;;;;;4989767;28;20046;-69
2023/10/29 06:35:40;;;;;;;0.00;0.00;;;;;;;;;;4983443;28;20038;-67
2023/10/29 06:38:06;;;;;;;0.00;0.00;;;;;;;;;;4980619;28;20129;-68
2023/10/29 06:40:32;;;;;;;0.00;0.00;;;;;;;;;;4978791;28;20056;-68
2023/10/29 06:42:58;;;;;;;0.00;0.00;;;;;;;;;;4980654;28;20425;-69
2023/10/29 06:45:24;;;;;;;0.00;0.00;;;;;;;;;;4980114;28;20802;-69
2023/10/29 06:47:50;;;;;;;0.00;0.00;;;;;;;;;;4981750;28;20038;-69
2023/10/29 06:50:16;;;;;;;0.00;0.00;;;;;;;;;;4983586;28;20031;-69
2023/10/29 06:52:42;;;;;;;0.00;0.00;;;;;;;;;;4986449;28;20061;-68
2023/10/29 06:55:09;;;;;;;0.00;0.00;;;;;;;;;;5001914;28;20156;-68
2023/10/29 06:57:35;;;;;;;0.00;0.00;;;;;;;;;;4981207;28;20579;-69
2023/10/29 07:00:01;;;;;;;0.00;0.00;;;;;;;;;;4981936;28;20035;-70
2023/10/29 07:02:27;;;;;;;0.00;0.00;;;;;;;;;;4987372;28;20042;-69
2023/10/29 07:04:53;;;;;;;0.00;0.00;;;;;;;;;;4980080;28;20050;-68
2023/10/29 07:07:19;;;;;;;0.00;0.00;;;;;;;;;;4979663;28;20046;-69
2023/10/29 07:09:45;;;;;;;0.00;0.00;;;;;;;;;;4979063;28;20117;-68
2023/10/29 07:12:11;;;;;;;0.00;0.00;;;;;;;;;;4978334;28;20065;-68
2023/10/29 07:14:37;;;;;;;0.00;0.00;;;;;;;;;;4978882;28;20125;-67
2023/10/29 07:17:03;;;;;;;0.00;0.00;;;;;;;;;;4979969;28;20053;-69
2023/10/29 07:19:29;;;;;;;0.00;0.00;;;;;;;;;;4980528;28;20034;-69
2023/10/29 07:21:55;;;;;;;0.00;0.00;;;;;;;;;;4981404;28;20331;-70
2023/10/29 07:24:21;;;;;;;0.00;0.00;;;;;;;;;;4993469;28;20407;-68
2023/10/29 07:26:47;;;;;;;0.00;0.00;;;;;;;;;;4981511;28;20108;-68
2023/10/29 07:29:13;;;;;;;0.00;0.00;;;;;;;;;;4978233;28;20034;-69
2023/10/29 07:31:39;;;;;;;0.00;0.00;;;;;;;;;;4979721;28;20039;-69
2023/10/29 07:34:05;;;;;;;0.00;0.00;;;;;;;;;;4978150;28;20042;-69
2023/10/29 07:36:31;;;;;;;0.00;0.00;;;;;;;;;;4988513;28;20053;-69
2023/10/29 07:38:57;;;;;;;0.00;0.00;;;;;;;;;;4980441;28;20121;-65
2023/10/29 07:41:23;;;;;;;0.00;0.00;;;;;;;;;;4983453;28;20532;-66
2023/10/29 07:43:49;;;;;;;0.00;0.00;;;;;;;;;;4986872;28;20093;-66
2023/10/29 07:46:15;;;;;;;0.00;0.00;;;;;;;;;;4982088;28;20026;-66
2023/10/29 07:48:42;;;;;;;0.00;0.00;;;;;;;;;;4982478;28;20520;-66
2023/10/29 07:51:11;;;;;;;0.00;0.00;;;;;;;;;;4980642;28;20495;-66
2023/10/29 07:53:37;;;;;;;0.00;0.00;;;;;;;;;;4978687;28;20573;-67
2023/10/29 07:56:09;;;;;;;0.00;0.00;;;;;;;;;;4979441;28;20038;-65
2023/10/29 07:58:36;;;;;;;0.00;0.00;;;;;;;;;;4981150;28;20045;-65
2023/10/29 08:01:03;;;;;;;0.00;0.00;;;;;;;;;;4979700;28;20499;-65
2023/10/29 08:03:29;;;;;;;0.00;0.00;;;;;;;;;;4981606;28;20752;-65
2023/10/29 08:05:55;;;;;;;0.00;0.00;;;;;;;;;;4989315;28;20121;-65
2023/10/29 08:08:21;;;;;;;0.00;0.00;;;;;;;;;;4978447;28;20034;-65
2023/10/29 08:10:47;;;;;;;0.00;0.00;;;;;;;;;;4981431;28;20042;-65
2023/10/29 08:13:13;;;;;;;0.00;0.00;;;;;;;;;;4979032;28;20094;-65
2023/10/29 08:15:39;;;;;;;0.00;0.00;;;;;;;;;;4978947;28;20553;-65
2023/10/29 08:18:05;;;;;;;0.00;0.00;;;;;;;;;;4979225;28;20356;-65
2023/10/29 08:20:33;;;;;;;0.00;0.00;;;;;;;;;;4979685;28;20050;-65
2023/10/29 08:22:59;;;;;;;0.00;0.00;;;;;;;;;;4980950;28;20506;-65
2023/10/29 08:25:24;;;;;;;0.00;0.00;;;;;;;;;;4979169;28;20065;-65
2023/10/29 08:27:50;;;;;;;0.00;0.00;;;;;;;;;;4981176;28;20147;-65
2023/10/29 08:30:16;;;;;;;0.00;0.00;;;;;;;;;;4987949;28;20149;-65
2023/10/29 08:32:43;;;;;;;0.00;0.00;;;;;;;;;;4984459;28;20575;-65
2023/10/29 08:35:09;;;;;;;0.00;0.00;;;;;;;;;;4978297;28;20034;-65
2023/10/29 08:37:35;;;;;;;0.00;0.00;;;;;;;;;;4980057;28;20073;-65
2023/10/29 08:40:01;;;;;;;0.00;0.00;;;;;;;;;;4988740;28;20060;-65
2023/10/29 08:42:30;;;;;;;0.00;0.00;;;;;;;;;;4985693;28;20038;-65
2023/10/29 08:44:59;;;;;;;0.00;0.00;;;;;;;;;;4981203;28;21557;-65
2023/10/29 08:47:26;;;;;;;0.00;0.00;;;;;;;;;;4977838;28;20129;-68
2023/10/29 08:49:52;;;;;;;0.00;0.00;;;;;;;;;;4977410;28;21185;-68
2023/10/29 08:52:18;;;;;;;0.00;0.00;;;;;;;;;;4978176;28;20126;-69
2023/10/29 08:54:45;;;;;;;0.00;0.00;;;;;;;;;;4979143;28;20038;-67
2023/10/29 08:57:11;;;;;;;0.00;0.00;;;;;;;;;;4978239;28;20054;-68
2023/10/29 08:59:37;;;;;;;0.00;0.00;;;;;;;;;;4978236;28;20027;-69
2023/10/29 09:02:04;;;;;;;0.00;0.00;;;;;;;;;;4980086;28;20379;-68
2023/10/29 09:04:30;;;;;;;0.00;0.00;;;;;;;;;;4978132;28;20399;-68
2023/10/29 09:06:56;;;;;;;0.00;0.00;;;;;;;;;;4977122;28;20046;-68
2023/10/29 09:09:22;;;;;;;0.00;0.00;;;;;;;;;;4986031;28;20046;-68
2023/10/29 09:11:53;;;;;;;0.00;0.00;;;;;;;;;;4979369;28;20388;-68
2023/10/29 09:14:19;;;;;;;0.00;0.00;;;;;;;;;;4976976;28;20117;-69
2023/10/29 09:16:47;;;;;;;0.00;0.00;;;;;;;;;;4979005;28;20475;-68
2023/10/29 09:19:14;;;;;;;0.00;0.00;;;;;;;;;;4979690;28;20084;-68
2023/10/29 09:21:39;;;;;;;0.00;0.00;;;;;;;;;;4984964;28;20027;-68
2023/10/29 09:24:06;;;;;;;0.00;0.00;;;;;;;;;;4977148;28;20506;-69
2023/10/29 09:26:33;;;;;;;0.00;0.00;;;;;;;;;;4988079;28;20054;-69
2023/10/29 09:29:00;;;;;;;0.00;0.00;;;;;;;;;;4979346;28;20089;-69
2023/10/29 09:31:26;;;;;;;0.00;0.00;;;;;;;;;;4979520;28;20503;-68
2023/10/29 09:33:52;;;;;;;0.00;0.00;;;;;;;;;;4977877;28;20038;-69
2023/10/29 09:36:18;;;;;;;0.00;0.00;;;;;;;;;;4976671;28;20639;-68
2023/10/29 09:38:44;;;;;;;0.00;0.00;;;;;;;;;;4999787;28;20588;-68
2023/10/29 09:41:10;;;;;;;0.00;0.00;;;;;;;;;;4982508;28;20042;-69
2023/10/29 09:43:40;;;;;;;0.00;0.00;;;;;;;;;;4980310;28;20121;-68
2023/10/29 09:46:07;;;;;;;0.00;0.00;;;;;;;;;;4981202;28;20353;-69
2023/10/29 09:48:39;;;;;;;0.00;0.00;;;;;;;;;;4986317;28;20101;-69
2023/10/29 09:51:06;;;;;;;0.00;0.00;;;;;;;;;;4987203;28;20034;-69
2023/10/29 09:53:34;;;;;;;0.00;0.00;;;;;;;;;;4985419;28;20046;-69
2023/10/29 09:56:00;;;;;;;0.00;0.00;;;;;;;;;;5003041;28;20028;-69
2023/10/29 09:58:27;;;;;;;0.00;0.00;;;;;;;;;;4983393;28;20546;-70
2023/10/29 10:00:53;;;;;;;0.00;0.00;;;;;;;;;;4990384;28;20611;-69
2023/10/29 10:03:20;;;;;;;0.00;0.00;;;;;;;;;;4983373;28;20030;-68
2023/10/29 10:05:47;;;;;;;0.00;0.00;;;;;;;;;;4984421;28;20128;-69
2023/10/29 10:08:13;;;;;;;0.00;0.00;;;;;;;;;;4980587;28;20402;-69
2023/10/29 10:10:40;;;;;;;0.00;0.00;;;;;;;;;;4985775;28;20125;-69
2023/10/29 10:13:07;;;;;;;0.00;0.00;;;;;;;;;;4983968;28;20651;-69
2023/10/29 10:15:33;;;;;;;0.00;0.00;;;;;;;;;;4982830;28;20035;-69
2023/10/29 10:18:07;;;;;;;0.00;0.00;;;;;;;;;;4983597;28;20039;-68
2023/10/29 10:20:32;;;;;;;;;;;;;;;;;;4985078;28;20621;-68
2023/10/29 10:22:59;;;;;;;0.00;0.00;;;;;;;;;;4981429;28;20012;-69
2023/10/29 10:25:26;;;;;;;0.00;0.00;;;;;;;;;;4980870;28;20038;-68
2023/10/29 10:27:53;;;;;;;0.00;0.00;;;;;;;;;;4973719;28;20073;-69
2023/10/29 10:30:33;;;;;;;0.00;0.00;;;;;;;;;;4982171;28;20066;-69
2023/10/29 10:33:15;;;;;;;0.00;0.00;;;;;;;;;;4981157;28;20228;-70
2023/10/29 10:35:45;;;;;;;0.00;0.00;;;;;;;;;;5005428;28;20109;-69
2023/10/29 10:38:12;;;;;;;0.00;0.00;;;;;;;;;;4989844;28;20062;-68
2023/10/29 10:40:38;;;;;;;0.00;0.00;;;;;;;;;;4980695;28;20136;-68
2023/10/29 10:43:05;;;;;;;0.00;0.00;;;;;;;;;;4977307;28;20046;-70
2023/10/29 10:45:33;;;;;;;0.00;0.00;;;;;;;;;;4983281;28;20627;-70
2023/10/29 10:48:03;;;;;;;0.00;0.00;;;;;;;;;;4991162;28;20636;-69
2023/10/29 10:50:30;;;;;;;0.00;0.00;;;;;;;;;;4990625;28;20176;-68
2023/10/29 10:52:57;;;;;;;0.00;0.00;;;;;;;;;;4983293;28;20383;-70
2023/10/29 10:55:24;;;;;;;0.00;0.00;;;;;;;;;;4981745;28;20038;-69
2023/10/29 10:57:50;;;;;;;0.00;0.00;;;;;;;;;;4976873;28;20474;-69
2023/10/29 11:00:17;;;;;;;0.00;0.00;;;;;;;;;;4975464;28;20038;-69
2023/10/29 11:02:43;;;;;;;0.00;0.00;;;;;;;;;;4983870;28;20104;-70
2023/10/29 11:05:13;;;;;;;0.00;0.00;;;;;;;;;;4980263;28;20042;-69
2023/10/29 11:07:41;;;;;;;0.00;0.00;;;;;;;;;;4981391;28;20542;-66
2023/10/29 11:10:08;;;;;;;0.00;0.00;;;;;;;;;;4975555;28;20065;-67
2023/10/29 11:12:38;;;;;;;0.00;0.00;;;;;;;;;;4986531;28;20557;-66
2023/10/29 11:15:17;;;;;;;0.00;0.00;;;;;;;;;;4981448;28;21393;-66
2023/10/29 11:17:56;;;;;;;0.00;0.00;;;;;;;;;;4985360;28;20486;-66
2023/10/29 11:20:38;;;;;;;0.00;0.00;;;;;;;;;;4982568;28;20040;-66
2023/10/29 11:23:08;;;;;;;0.00;0.00;;;;;;;;;;4980572;28;20554;-66
2023/10/29 11:25:34;;;;;;;0.00;0.00;;;;;;;;;;4980267;28;20038;-66
2023/10/29 11:28:01;;;;;;;0.00;0.00;;;;;;;;;;4982148;28;20128;-67
2023/10/29 11:30:28;;;;;;;0.00;0.00;;;;;;;;;;4980905;28;20038;-67
2023/10/29 11:33:09;;;;;;;0.00;0.00;;;;;;;;;;4979394;28;20060;-66
2023/10/29 11:35:35;;;;;;;0.00;0.00;;;;;;;;;;4989648;28;20161;-66
2023/10/29 11:38:02;;;;;;;0.00;0.00;;;;;;;;;;4984757;28;20043;-66
2023/10/29 11:40:30;;;;;;;0.00;0.00;;;;;;;;;;4990234;28;20034;-66
2023/10/29 11:42:57;;;;;;;0.00;0.00;;;;;;;;;;4979636;28;20036;-67
2023/10/29 11:45:29;;;;;;;0.00;0.00;;;;;;;;;;4982369;28;20506;-66
2023/10/29 11:48:08;;;;;;;0.00;0.00;;;;;;;;;;4983701;28;20486;-67
2023/10/29 11:50:35;;;;;;;0.00;0.00;;;;;;;;;;4977964;28;20030;-66
2023/10/29 11:53:01;;;;;;;0.00;0.00;;;;;;;;;;4984100;28;20564;-66
2023/10/29 11:55:27;;;;;;;0.00;0.00;;;;;;;;;;4982116;28;20093;-67
2023/10/29 11:57:54;;;;;;;0.00;0.00;;;;;;;;;;4982478;28;20408;-66
2023/10/29 12:00:21;;;;;;;0.00;0.00;;;;;;;;;;4982210;28;20038;-66
2023/10/29 12:02:48;;;;;;;0.00;0.00;;;;;;;;;;4983544;28;20122;-66
2023/10/29 12:05:15;;;;;;;0.00;0.00;;;;;;;;;;4981165;28;20380;-66
2023/10/29 12:07:41;;;;;;;0.00;0.00;;;;;;;;;;4978069;28;20038;-66
2023/10/29 12:10:08;;;;;;;0.00;0.00;;;;;;;;;;4980291;28;20045;-66
2023/10/29 12:12:34;;;;;;;0.00;0.00;;;;;;;;;;4982827;28;20044;-66
2023/10/29 12:15:00;;;;;;;0.00;0.00;;;;;;;;;;4994043;28;20121;-66
2023/10/29 12:17:29;;;;;;;0.00;0.00;;;;;;;;;;4982860;28;20037;-66
2023/10/29 12:19:56;;;;;;;0.00;0.00;;;;;;;;;;4983551;28;20037;-66
2023/10/29 12:22:30;;;;;;;0.00;0.00;;;;;;;;;;4981112;28;20031;-66
2023/10/29 12:25:00;;;;;;;0.00;0.00;;;;;;;;;;4982747;28;20034;-66
2023/10/29 12:27:27;;;;;;;0.00;0.00;;;;;;;;;;4982571;28;20623;-66
2023/10/29 12:29:53;;;;;;;0.00;0.00;;;;;;;;;;4981587;28;20206;-66
2023/10/29 12:32:21;;;;;;;0.00;0.00;;;;;;;;;;4978991;28;20037;-66
2023/10/29 12:34:50;;;;;;;0.00;0.00;;;;;;;;;;4980866;28;20062;-66
2023/10/29 12:37:23;;;;;;;0.00;0.00;;;;;;;;;;4981689;28;20076;-69
2023/10/29 12:39:51;;;;;;;0.00;0.00;;;;;;;;;;4980967;28;20110;-68
2023/10/29 12:42:18;;;;;;;0.00;0.00;;;;;;;;;;4981562;28;20476;-69
2023/10/29 12:44:52;;;;;;;0.00;0.00;;;;;;;;;;4981625;28;20058;-69
2023/10/29 12:47:18;;;;;;;0.00;0.00;;;;;;;;;;4979616;28;20061;-66
2023/10/29 12:49:44;;;;;;;0.00;0.00;;;;;;;;;;4982024;28;20450;-66
2023/10/29 12:52:13;;;;;;;0.00;0.00;;;;;;;;;;4980463;28;20114;-66
2023/10/29 12:54:44;;;;;;;0.00;0.00;;;;;;;;;;4978055;28;20116;-65
2023/10/29 12:57:15;;;;;;;0.00;0.00;;;;;;;;;;4980795;28;20570;-66
2023/10/29 12:59:43;;;;;;;0.00;0.00;;;;;;;;;;4995918;28;20041;-66
2023/10/29 13:02:20;;;;;;;0.00;0.00;;;;;;;;;;4983459;28;20046;-66
2023/10/29 13:04:48;;;;;;;0.00;0.00;;;;;;;;;;4996087;28;20646;-66
2023/10/29 13:07:17;;;;;;;0.00;0.00;;;;;;;;;;4976836;28;20049;-66
2023/10/29 13:09:43;;;;;;;0.00;0.00;;;;;;;;;;4980503;28;20050;-66
2023/10/29 13:12:11;;;;;;;0.00;0.00;;;;;;;;;;4980940;28;20531;-66
2023/10/29 13:14:37;;;;;;;0.00;0.00;;;;;;;;;;4977329;28;20375;-66
2023/10/29 13:17:04;;;;;;;0.00;0.00;;;;;;;;;;4980213;28;20041;-65
2023/10/29 13:19:30;;;;;;;0.00;0.00;;;;;;;;;;4981802;28;20049;-66
2023/10/29 13:21:56;;;;;;;0.00;0.00;;;;;;;;;;4980677;28;20084;-66
2023/10/29 13:24:22;;;;;;;0.00;0.00;;;;;;;;;;4978937;28;20042;-65
2023/10/29 13:26:50;;;;;;;0.00;0.00;;;;;;;;;;4981471;28;20045;-66
2023/10/29 13:29:17;;;;;;;0.00;0.00;;;;;;;;;;4981016;28;20042;-65
2023/10/29 13:31:45;;;;;;;0.00;0.00;;;;;;;;;;4979745;28;20045;-66
2023/10/29 13:34:13;;;;;;;0.00;0.00;;;;;;;;;;4979452;28;20054;-66
2023/10/29 13:36:39;;;;;;;0.00;0.00;;;;;;;;;;4980597;28;20035;-66
2023/10/29 13:39:08;;;;;;;0.00;0.00;;;;;;;;;;4978499;28;20034;-66
2023/10/29 13:41:38;;;;;;;0.00;0.00;;;;;;;;;;4981246;28;20041;-66
2023/10/29 13:44:04;;;;;;;0.00;0.00;;;;;;;;;;4978875;28;20046;-65
2023/10/29 13:46:30;;;;;;;0.00;0.00;;;;;;;;;;4990367;28;20041;-65
2023/10/29 13:48:57;;;;;;;0.00;0.00;;;;;;;;;;4978940;28;20038;-65
2023/10/29 13:51:23;;;;;;;0.00;0.00;;;;;;;;;;4978459;28;20060;-65
2023/10/29 13:53:50;;;;;;;0.00;0.00;;;;;;;;;;4979997;28;20426;-65
2023/10/29 13:56:16;;;;;;;0.00;0.00;;;;;;;;;;4979272;28;20089;-65
2023/10/29 13:58:43;;;;;;;0.00;0.00;;;;;;;;;;4978630;28;20783;-69
2023/10/29 14:01:19;;;;;;;0.00;0.00;;;;;;;;;;4980137;28;20490;-70
2023/10/29 14:03:45;;;;;;;0.00;0.00;;;;;;;;;;4980034;28;20030;-71
2023/10/29 14:06:11;;;;;;;0.00;0.00;;;;;;;;;;4981227;28;20038;-69
2023/10/29 14:08:40;;;;;;;0.00;0.00;;;;;;;;;;4974952;28;20037;-69
2023/10/29 14:11:06;;;;;;;0.00;0.00;;;;;;;;;;4991286;28;20039;-68
2023/10/29 14:13:32;;;;;;;0.00;0.00;;;;;;;;;;4985753;28;20061;-69
2023/10/29 14:16:02;;;;;;;0.00;0.00;;;;;;;;;;4978309;28;20549;-69
2023/10/29 14:18:29;;;;;;;0.00;0.00;;;;;;;;;;4988259;28;20439;-68
2023/10/29 14:20:55;;;;;;;0.00;0.00;;;;;;;;;;4980966;28;20129;-69
2023/10/29 14:23:24;;;;;;;0.00;0.00;;;;;;;;;;4979167;28;20045;-69
2023/10/29 14:25:50;;;;;;;0.00;0.00;;;;;;;;;;4975108;28;20752;-68
2023/10/29 14:28:16;;;;;;;0.00;0.00;;;;;;;;;;4978973;28;20402;-69
2023/10/29 14:30:42;;;;;;;0.00;0.00;;;;;;;;;;4977294;28;20075;-69
2023/10/29 14:33:08;;;;;;;0.00;0.00;;;;;;;;;;4977647;28;20522;-71
2023/10/29 14:35:35;;;;;;;0.00;0.00;;;;;;;;;;4980043;28;20038;-69
2023/10/29 14:38:02;;;;;;;0.00;0.00;;;;;;;;;;4982772;28;20594;-68
2023/10/29 14:40:29;;;;;;;0.00;0.00;;;;;;;;;;4982002;28;20053;-70